sensor_id;sensor_type;location;lat;lon;timestamp;P1;durP1;ratioP1;P2;durP2;ratioP2
70420;SDS011;57848;51.938;15.520;2022-09-03T00:01:26;5.47;;;1.58;;
70420;SDS011;57848;51.938;15.520;2022-09-03T00:03:58;5.88;;;1.35;;
70420;SDS011;57848;51.938;15.520;2022-09-03T00:06:33;7.10;;;1.35;;
70420;SDS011;57848;51.938;15.520;2022-09-03T00:09:13;5.57;;;1.25;;
70420;SDS011;57848;51.938;15.520;2022-09-03T00:11:52;6.13;;;1.60;;
70420;SDS011;57848;51.938;15.520;2022-09-03T00:14:50;5.35;;;1.10;;
70420;SDS011;57848;51.938;15.520;2022-09-03T00:17:23;4.00;;;1.10;;
70420;SDS011;57848;51.938;15.520;2022-09-03T00:19:54;5.28;;;1.33;;
70420;SDS011;57848;51.938;15.520;2022-09-03T00:22:32;9.25;;;1.50;;
70420;SDS011;57848;51.938;15.520;2022-09-03T00:25:02;4.03;;;1.00;;
70420;SDS011;57848;51.938;15.520;2022-09-03T00:27:31;10.00;;;1.75;;
70420;SDS011;57848;51.938;15.520;2022-09-03T00:30:01;5.55;;;1.45;;
70420;SDS011;57848;51.938;15.520;2022-09-03T00:32:46;5.40;;;1.50;;
70420;SDS011;57848;51.938;15.520;2022-09-03T00:35:19;5.60;;;1.23;;
70420;SDS011;57848;51.938;15.520;2022-09-03T00:37:56;5.50;;;1.20;;
70420;SDS011;57848;51.938;15.520;2022-09-03T00:40:38;6.13;;;1.42;;
70420;SDS011;57848;51.938;15.520;2022-09-03T00:45:58;7.68;;;2.58;;
70420;SDS011;57848;51.938;15.520;2022-09-03T00:48:48;4.95;;;1.60;;
70420;SDS011;57848;51.938;15.520;2022-09-03T00:54:19;6.10;;;1.60;;
70420;SDS011;57848;51.938;15.520;2022-09-03T00:59:42;6.90;;;1.17;;
70420;SDS011;57848;51.938;15.520;2022-09-03T01:04:55;5.77;;;1.77;;
70420;SDS011;57848;51.938;15.520;2022-09-03T01:07:39;5.43;;;1.60;;
70420;SDS011;57848;51.938;15.520;2022-09-03T01:10:25;5.22;;;1.48;;
70420;SDS011;57848;51.938;15.520;2022-09-03T01:13:21;5.80;;;1.23;;
70420;SDS011;57848;51.938;15.520;2022-09-03T01:16:13;6.03;;;1.73;;
70420;SDS011;57848;51.938;15.520;2022-09-03T01:18:55;5.37;;;1.50;;
70420;SDS011;57848;51.938;15.520;2022-09-03T01:22:00;6.75;;;1.45;;
70420;SDS011;57848;51.938;15.520;2022-09-03T01:30:44;6.68;;;1.30;;
70420;SDS011;57848;51.938;15.520;2022-09-03T01:33:20;7.27;;;1.53;;
70420;SDS011;57848;51.938;15.520;2022-09-03T01:36:26;4.97;;;1.42;;
70420;SDS011;57848;51.938;15.520;2022-09-03T01:39:02;5.88;;;1.52;;
70420;SDS011;57848;51.938;15.520;2022-09-03T01:44:41;7.53;;;1.40;;
70420;SDS011;57848;51.938;15.520;2022-09-03T01:47:21;6.23;;;1.40;;
70420;SDS011;57848;51.938;15.520;2022-09-03T01:50:04;5.93;;;1.67;;
70420;SDS011;57848;51.938;15.520;2022-09-03T01:52:49;5.80;;;1.90;;
70420;SDS011;57848;51.938;15.520;2022-09-03T01:58:17;9.23;;;1.33;;
70420;SDS011;57848;51.938;15.520;2022-09-03T02:00:53;4.97;;;1.40;;
70420;SDS011;57848;51.938;15.520;2022-09-03T02:03:23;6.70;;;1.42;;
70420;SDS011;57848;51.938;15.520;2022-09-03T02:05:57;7.22;;;2.00;;
70420;SDS011;57848;51.938;15.520;2022-09-03T02:08:24;7.07;;;1.85;;
70420;SDS011;57848;51.938;15.520;2022-09-03T02:10:50;7.23;;;2.77;;
70420;SDS011;57848;51.938;15.520;2022-09-03T02:13:23;7.95;;;2.58;;
70420;SDS011;57848;51.938;15.520;2022-09-03T02:15:56;8.63;;;1.90;;
70420;SDS011;57848;51.938;15.520;2022-09-03T02:18:26;7.28;;;1.55;;
70420;SDS011;57848;51.938;15.520;2022-09-03T02:20:55;7.20;;;1.80;;
70420;SDS011;57848;51.938;15.520;2022-09-03T02:23:22;6.47;;;1.70;;
70420;SDS011;57848;51.938;15.520;2022-09-03T02:25:49;6.55;;;2.28;;
70420;SDS011;57848;51.938;15.520;2022-09-03T02:28:19;5.90;;;1.70;;
70420;SDS011;57848;51.938;15.520;2022-09-03T02:30:44;5.90;;;1.83;;
70420;SDS011;57848;51.938;15.520;2022-09-03T02:33:10;6.30;;;2.10;;
70420;SDS011;57848;51.938;15.520;2022-09-03T02:35:36;6.45;;;1.92;;
70420;SDS011;57848;51.938;15.520;2022-09-03T02:38:13;6.67;;;2.47;;
70420;SDS011;57848;51.938;15.520;2022-09-03T02:40:41;7.43;;;2.00;;
70420;SDS011;57848;51.938;15.520;2022-09-03T02:43:10;8.00;;;2.40;;
70420;SDS011;57848;51.938;15.520;2022-09-03T02:45:42;9.38;;;2.40;;
70420;SDS011;57848;51.938;15.520;2022-09-03T02:48:11;7.80;;;2.33;;
70420;SDS011;57848;51.938;15.520;2022-09-03T02:50:41;7.90;;;2.40;;
70420;SDS011;57848;51.938;15.520;2022-09-03T02:53:07;6.65;;;2.20;;
70420;SDS011;57848;51.938;15.520;2022-09-03T02:55:33;7.53;;;2.47;;
70420;SDS011;57848;51.938;15.520;2022-09-03T02:57:58;9.83;;;2.70;;
70420;SDS011;57848;51.938;15.520;2022-09-03T03:00:24;6.47;;;2.47;;
70420;SDS011;57848;51.938;15.520;2022-09-03T03:02:50;7.47;;;2.80;;
70420;SDS011;57848;51.938;15.520;2022-09-03T03:05:17;11.20;;;3.00;;
70420;SDS011;57848;51.938;15.520;2022-09-03T03:07:50;8.15;;;2.92;;
70420;SDS011;57848;51.938;15.520;2022-09-03T03:10:15;7.40;;;2.87;;
70420;SDS011;57848;51.938;15.520;2022-09-03T03:12:41;9.43;;;3.03;;
70420;SDS011;57848;51.938;15.520;2022-09-03T03:15:06;7.10;;;2.67;;
70420;SDS011;57848;51.938;15.520;2022-09-03T03:17:32;8.00;;;3.00;;
70420;SDS011;57848;51.938;15.520;2022-09-03T03:19:57;8.77;;;3.00;;
70420;SDS011;57848;51.938;15.520;2022-09-03T03:22:22;7.80;;;2.87;;
70420;SDS011;57848;51.938;15.520;2022-09-03T03:24:48;7.47;;;2.90;;
70420;SDS011;57848;51.938;15.520;2022-09-03T03:27:14;8.20;;;3.20;;
70420;SDS011;57848;51.938;15.520;2022-09-03T03:29:40;7.85;;;3.33;;
70420;SDS011;57848;51.938;15.520;2022-09-03T03:32:05;9.03;;;2.70;;
70420;SDS011;57848;51.938;15.520;2022-09-03T03:34:30;7.60;;;2.93;;
70420;SDS011;57848;51.938;15.520;2022-09-03T03:36:56;9.67;;;3.17;;
70420;SDS011;57848;51.938;15.520;2022-09-03T03:39:21;11.53;;;3.10;;
70420;SDS011;57848;51.938;15.520;2022-09-03T03:41:46;8.10;;;3.22;;
70420;SDS011;57848;51.938;15.520;2022-09-03T03:44:12;8.70;;;3.20;;
70420;SDS011;57848;51.938;15.520;2022-09-03T03:46:38;8.17;;;3.10;;
70420;SDS011;57848;51.938;15.520;2022-09-03T03:49:04;10.27;;;3.65;;
70420;SDS011;57848;51.938;15.520;2022-09-03T03:51:30;9.23;;;3.75;;
70420;SDS011;57848;51.938;15.520;2022-09-03T03:53:56;9.10;;;3.33;;
70420;SDS011;57848;51.938;15.520;2022-09-03T03:56:22;10.50;;;3.20;;
70420;SDS011;57848;51.938;15.520;2022-09-03T03:58:50;8.90;;;3.15;;
70420;SDS011;57848;51.938;15.520;2022-09-03T04:01:20;8.70;;;3.97;;
70420;SDS011;57848;51.938;15.520;2022-09-03T04:03:47;8.50;;;3.47;;
70420;SDS011;57848;51.938;15.520;2022-09-03T04:06:13;9.97;;;4.00;;
70420;SDS011;57848;51.938;15.520;2022-09-03T04:08:40;9.32;;;3.58;;
70420;SDS011;57848;51.938;15.520;2022-09-03T04:11:07;11.52;;;3.53;;
70420;SDS011;57848;51.938;15.520;2022-09-03T04:13:37;9.63;;;3.55;;
70420;SDS011;57848;51.938;15.520;2022-09-03T04:16:04;8.60;;;3.00;;
70420;SDS011;57848;51.938;15.520;2022-09-03T04:18:31;8.40;;;4.00;;
70420;SDS011;57848;51.938;15.520;2022-09-03T04:21:02;9.40;;;3.58;;
70420;SDS011;57848;51.938;15.520;2022-09-03T04:23:30;7.95;;;3.30;;
70420;SDS011;57848;51.938;15.520;2022-09-03T04:25:56;9.98;;;3.42;;
70420;SDS011;57848;51.938;15.520;2022-09-03T04:28:21;7.73;;;3.63;;
70420;SDS011;57848;51.938;15.520;2022-09-03T04:30:47;7.57;;;3.47;;
70420;SDS011;57848;51.938;15.520;2022-09-03T04:33:13;11.45;;;3.60;;
70420;SDS011;57848;51.938;15.520;2022-09-03T04:35:38;8.23;;;3.40;;
70420;SDS011;57848;51.938;15.520;2022-09-03T04:38:05;9.63;;;3.80;;
70420;SDS011;57848;51.938;15.520;2022-09-03T04:40:30;11.73;;;3.30;;
70420;SDS011;57848;51.938;15.520;2022-09-03T04:42:56;8.20;;;3.67;;
70420;SDS011;57848;51.938;15.520;2022-09-03T04:45:23;10.50;;;3.70;;
70420;SDS011;57848;51.938;15.520;2022-09-03T04:47:55;8.67;;;4.13;;
70420;SDS011;57848;51.938;15.520;2022-09-03T04:50:25;8.48;;;3.33;;
70420;SDS011;57848;51.938;15.520;2022-09-03T04:53:00;7.60;;;3.53;;
70420;SDS011;57848;51.938;15.520;2022-09-03T04:55:27;8.68;;;3.30;;
70420;SDS011;57848;51.938;15.520;2022-09-03T04:57:57;8.27;;;3.67;;
70420;SDS011;57848;51.938;15.520;2022-09-03T05:00:23;8.50;;;3.73;;
70420;SDS011;57848;51.938;15.520;2022-09-03T05:02:48;8.60;;;3.20;;
70420;SDS011;57848;51.938;15.520;2022-09-03T05:05:15;9.37;;;3.40;;
70420;SDS011;57848;51.938;15.520;2022-09-03T05:07:41;9.38;;;3.72;;
70420;SDS011;57848;51.938;15.520;2022-09-03T05:10:08;8.30;;;3.17;;
70420;SDS011;57848;51.938;15.520;2022-09-03T05:12:37;6.75;;;3.05;;
70420;SDS011;57848;51.938;15.520;2022-09-03T05:15:03;8.27;;;4.00;;
70420;SDS011;57848;51.938;15.520;2022-09-03T05:17:29;9.43;;;3.20;;
70420;SDS011;57848;51.938;15.520;2022-09-03T05:19:55;7.60;;;3.60;;
70420;SDS011;57848;51.938;15.520;2022-09-03T05:22:20;9.32;;;3.25;;
70420;SDS011;57848;51.938;15.520;2022-09-03T05:24:46;7.77;;;3.30;;
70420;SDS011;57848;51.938;15.520;2022-09-03T05:27:12;7.40;;;3.67;;
70420;SDS011;57848;51.938;15.520;2022-09-03T05:29:43;7.80;;;3.00;;
70420;SDS011;57848;51.938;15.520;2022-09-03T05:32:09;8.50;;;3.33;;
70420;SDS011;57848;51.938;15.520;2022-09-03T05:34:36;8.40;;;3.08;;
70420;SDS011;57848;51.938;15.520;2022-09-03T05:37:01;11.57;;;3.50;;
70420;SDS011;57848;51.938;15.520;2022-09-03T05:39:27;9.07;;;3.13;;
70420;SDS011;57848;51.938;15.520;2022-09-03T05:41:52;8.90;;;3.50;;
70420;SDS011;57848;51.938;15.520;2022-09-03T05:44:18;7.27;;;3.10;;
70420;SDS011;57848;51.938;15.520;2022-09-03T05:46:47;7.70;;;2.85;;
70420;SDS011;57848;51.938;15.520;2022-09-03T05:49:12;7.50;;;3.20;;
70420;SDS011;57848;51.938;15.520;2022-09-03T05:51:38;8.23;;;3.00;;
70420;SDS011;57848;51.938;15.520;2022-09-03T05:54:03;8.00;;;3.07;;
70420;SDS011;57848;51.938;15.520;2022-09-03T05:56:30;7.17;;;3.00;;
70420;SDS011;57848;51.938;15.520;2022-09-03T05:58:57;8.07;;;3.10;;
70420;SDS011;57848;51.938;15.520;2022-09-03T06:01:29;8.23;;;3.25;;
70420;SDS011;57848;51.938;15.520;2022-09-03T06:04:09;7.03;;;2.73;;
70420;SDS011;57848;51.938;15.520;2022-09-03T06:06:37;8.98;;;2.63;;
70420;SDS011;57848;51.938;15.520;2022-09-03T06:09:08;8.75;;;2.83;;
70420;SDS011;57848;51.938;15.520;2022-09-03T06:11:39;8.93;;;2.63;;
70420;SDS011;57848;51.938;15.520;2022-09-03T06:14:07;9.00;;;2.50;;
70420;SDS011;57848;51.938;15.520;2022-09-03T06:16:34;7.00;;;2.50;;
70420;SDS011;57848;51.938;15.520;2022-09-03T06:19:01;6.72;;;2.63;;
70420;SDS011;57848;51.938;15.520;2022-09-03T06:21:30;11.27;;;2.70;;
70420;SDS011;57848;51.938;15.520;2022-09-03T06:23:56;7.70;;;2.20;;
70420;SDS011;57848;51.938;15.520;2022-09-03T06:26:22;7.50;;;2.45;;
70420;SDS011;57848;51.938;15.520;2022-09-03T06:28:48;7.07;;;2.10;;
70420;SDS011;57848;51.938;15.520;2022-09-03T06:31:14;6.87;;;2.30;;
70420;SDS011;57848;51.938;15.520;2022-09-03T06:33:41;10.25;;;2.65;;
70420;SDS011;57848;51.938;15.520;2022-09-03T06:36:07;7.23;;;2.60;;
70420;SDS011;57848;51.938;15.520;2022-09-03T06:38:35;7.55;;;2.80;;
70420;SDS011;57848;51.938;15.520;2022-09-03T06:41:02;6.40;;;2.10;;
70420;SDS011;57848;51.938;15.520;2022-09-03T06:43:30;6.45;;;2.45;;
70420;SDS011;57848;51.938;15.520;2022-09-03T06:45:58;10.07;;;2.50;;
70420;SDS011;57848;51.938;15.520;2022-09-03T06:48:25;7.10;;;2.22;;
70420;SDS011;57848;51.938;15.520;2022-09-03T06:50:52;7.68;;;2.15;;
70420;SDS011;57848;51.938;15.520;2022-09-03T06:53:39;6.80;;;2.28;;
70420;SDS011;57848;51.938;15.520;2022-09-03T06:56:10;6.55;;;2.40;;
70420;SDS011;57848;51.938;15.520;2022-09-03T06:58:37;8.03;;;2.50;;
70420;SDS011;57848;51.938;15.520;2022-09-03T07:01:11;6.68;;;2.50;;
70420;SDS011;57848;51.938;15.520;2022-09-03T07:03:42;6.20;;;2.38;;
70420;SDS011;57848;51.938;15.520;2022-09-03T07:06:12;8.75;;;2.60;;
70420;SDS011;57848;51.938;15.520;2022-09-03T07:08:41;10.13;;;2.50;;
70420;SDS011;57848;51.938;15.520;2022-09-03T07:11:09;6.73;;;2.10;;
70420;SDS011;57848;51.938;15.520;2022-09-03T07:13:36;7.07;;;2.42;;
70420;SDS011;57848;51.938;15.520;2022-09-03T07:16:08;8.52;;;2.80;;
70420;SDS011;57848;51.938;15.520;2022-09-03T07:18:34;7.15;;;2.28;;
70420;SDS011;57848;51.938;15.520;2022-09-03T07:21:02;7.35;;;2.10;;
70420;SDS011;57848;51.938;15.520;2022-09-03T07:23:30;8.17;;;2.10;;
70420;SDS011;57848;51.938;15.520;2022-09-03T07:25:58;6.43;;;2.10;;
70420;SDS011;57848;51.938;15.520;2022-09-03T07:28:25;9.25;;;2.10;;
70420;SDS011;57848;51.938;15.520;2022-09-03T07:30:51;9.50;;;2.00;;
70420;SDS011;57848;51.938;15.520;2022-09-03T07:33:18;7.60;;;2.22;;
70420;SDS011;57848;51.938;15.520;2022-09-03T07:35:43;8.23;;;2.10;;
70420;SDS011;57848;51.938;15.520;2022-09-03T07:38:09;11.88;;;2.80;;
70420;SDS011;57848;51.938;15.520;2022-09-03T07:40:35;9.83;;;2.17;;
70420;SDS011;57848;51.938;15.520;2022-09-03T07:43:03;9.95;;;2.67;;
70420;SDS011;57848;51.938;15.520;2022-09-03T07:45:31;7.87;;;2.00;;
70420;SDS011;57848;51.938;15.520;2022-09-03T07:47:57;8.15;;;2.40;;
70420;SDS011;57848;51.938;15.520;2022-09-03T07:50:23;7.55;;;2.10;;
70420;SDS011;57848;51.938;15.520;2022-09-03T07:52:49;6.07;;;2.30;;
70420;SDS011;57848;51.938;15.520;2022-09-03T07:55:19;6.90;;;2.45;;
70420;SDS011;57848;51.938;15.520;2022-09-03T07:57:44;8.63;;;2.20;;
70420;SDS011;57848;51.938;15.520;2022-09-03T08:00:10;7.93;;;2.27;;
70420;SDS011;57848;51.938;15.520;2022-09-03T08:02:36;7.32;;;2.10;;
70420;SDS011;57848;51.938;15.520;2022-09-03T08:05:02;11.27;;;1.80;;
70420;SDS011;57848;51.938;15.520;2022-09-03T08:07:28;6.93;;;1.90;;
70420;SDS011;57848;51.938;15.520;2022-09-03T08:09:54;7.63;;;2.28;;
70420;SDS011;57848;51.938;15.520;2022-09-03T08:12:19;7.68;;;1.80;;
70420;SDS011;57848;51.938;15.520;2022-09-03T08:14:45;7.63;;;1.87;;
70420;SDS011;57848;51.938;15.520;2022-09-03T08:17:10;7.63;;;2.13;;
70420;SDS011;57848;51.938;15.520;2022-09-03T08:19:37;9.32;;;2.08;;
70420;SDS011;57848;51.938;15.520;2022-09-03T08:22:04;7.20;;;1.93;;
70420;SDS011;57848;51.938;15.520;2022-09-03T08:24:29;7.28;;;2.78;;
70420;SDS011;57848;51.938;15.520;2022-09-03T08:26:55;7.87;;;2.20;;
70420;SDS011;57848;51.938;15.520;2022-09-03T08:29:20;6.73;;;2.30;;
70420;SDS011;57848;51.938;15.520;2022-09-03T08:31:46;7.13;;;2.22;;
70420;SDS011;57848;51.938;15.520;2022-09-03T08:34:11;6.90;;;2.17;;
70420;SDS011;57848;51.938;15.520;2022-09-03T08:36:38;8.38;;;2.20;;
70420;SDS011;57848;51.938;15.520;2022-09-03T08:39:07;6.53;;;2.10;;
70420;SDS011;57848;51.938;15.520;2022-09-03T08:49:47;6.35;;;1.77;;
70420;SDS011;57848;51.938;15.520;2022-09-03T08:52:27;6.13;;;1.60;;
70420;SDS011;57848;51.938;15.520;2022-09-03T08:55:02;5.50;;;1.52;;
70420;SDS011;57848;51.938;15.520;2022-09-03T08:57:39;9.73;;;1.80;;
70420;SDS011;57848;51.938;15.520;2022-09-03T09:00:08;7.22;;;1.60;;
70420;SDS011;57848;51.938;15.520;2022-09-03T09:02:41;7.57;;;1.73;;
70420;SDS011;57848;51.938;15.520;2022-09-03T09:08:45;7.18;;;1.67;;
70420;SDS011;57848;51.938;15.520;2022-09-03T09:11:45;7.90;;;1.77;;
70420;SDS011;57848;51.938;15.520;2022-09-03T09:14:20;7.45;;;1.60;;
70420;SDS011;57848;51.938;15.520;2022-09-03T09:16:59;7.13;;;1.90;;
70420;SDS011;57848;51.938;15.520;2022-09-03T09:19:43;6.38;;;1.70;;
70420;SDS011;57848;51.938;15.520;2022-09-03T09:22:18;6.78;;;1.83;;
70420;SDS011;57848;51.938;15.520;2022-09-03T09:25:05;7.23;;;1.30;;
70420;SDS011;57848;51.938;15.520;2022-09-03T09:27:39;5.50;;;1.30;;
70420;SDS011;57848;51.938;15.520;2022-09-03T09:30:11;5.55;;;1.30;;
70420;SDS011;57848;51.938;15.520;2022-09-03T09:32:40;5.70;;;1.60;;
70420;SDS011;57848;51.938;15.520;2022-09-03T09:35:09;5.67;;;1.40;;
70420;SDS011;57848;51.938;15.520;2022-09-03T09:37:45;5.85;;;1.67;;
70420;SDS011;57848;51.938;15.520;2022-09-03T09:40:25;5.97;;;1.17;;
70420;SDS011;57848;51.938;15.520;2022-09-03T09:43:11;7.43;;;1.30;;
70420;SDS011;57848;51.938;15.520;2022-09-03T09:45:42;5.60;;;1.20;;
70420;SDS011;57848;51.938;15.520;2022-09-03T09:48:31;5.32;;;1.42;;
70420;SDS011;57848;51.938;15.520;2022-09-03T09:51:06;6.13;;;1.20;;
70420;SDS011;57848;51.938;15.520;2022-09-03T09:53:35;7.17;;;1.50;;
70420;SDS011;57848;51.938;15.520;2022-09-03T09:56:00;5.93;;;1.70;;
70420;SDS011;57848;51.938;15.520;2022-09-03T09:58:29;4.88;;;1.30;;
70420;SDS011;57848;51.938;15.520;2022-09-03T10:03:39;6.30;;;1.90;;
70420;SDS011;57848;51.938;15.520;2022-09-03T10:06:12;6.00;;;1.60;;
70420;SDS011;57848;51.938;15.520;2022-09-03T10:09:04;6.75;;;1.63;;
70420;SDS011;57848;51.938;15.520;2022-09-03T10:11:34;6.35;;;1.60;;
70420;SDS011;57848;51.938;15.520;2022-09-03T10:14:04;5.57;;;1.63;;
70420;SDS011;57848;51.938;15.520;2022-09-03T10:16:38;5.70;;;1.70;;
70420;SDS011;57848;51.938;15.520;2022-09-03T10:24:14;6.18;;;1.60;;
70420;SDS011;57848;51.938;15.520;2022-09-03T10:26:51;5.80;;;1.60;;
70420;SDS011;57848;51.938;15.520;2022-09-03T10:29:17;8.87;;;2.13;;
70420;SDS011;57848;51.938;15.520;2022-09-03T10:31:51;6.18;;;1.80;;
70420;SDS011;57848;51.938;15.520;2022-09-03T10:34:43;5.22;;;1.63;;
70420;SDS011;57848;51.938;15.520;2022-09-03T10:37:37;6.55;;;1.70;;
70420;SDS011;57848;51.938;15.520;2022-09-03T10:42:43;6.90;;;2.20;;
70420;SDS011;57848;51.938;15.520;2022-09-03T10:53:46;5.25;;;1.67;;
70420;SDS011;57848;51.938;15.520;2022-09-03T10:59:31;7.00;;;1.83;;
70420;SDS011;57848;51.938;15.520;2022-09-03T11:05:34;6.88;;;2.00;;
70420;SDS011;57848;51.938;15.520;2022-09-03T11:10:53;7.70;;;1.40;;
70420;SDS011;57848;51.938;15.520;2022-09-03T11:13:25;6.28;;;1.80;;
70420;SDS011;57848;51.938;15.520;2022-09-03T11:15:59;8.40;;;1.70;;
70420;SDS011;57848;51.938;15.520;2022-09-03T11:18:34;6.70;;;2.00;;
70420;SDS011;57848;51.938;15.520;2022-09-03T11:21:04;6.28;;;1.70;;
70420;SDS011;57848;51.938;15.520;2022-09-03T11:23:36;7.00;;;1.60;;
70420;SDS011;57848;51.938;15.520;2022-09-03T11:26:06;7.45;;;1.75;;
70420;SDS011;57848;51.938;15.520;2022-09-03T11:33:44;7.40;;;2.00;;
70420;SDS011;57848;51.938;15.520;2022-09-03T11:36:13;7.43;;;1.80;;
70420;SDS011;57848;51.938;15.520;2022-09-03T11:38:49;7.38;;;1.90;;
70420;SDS011;57848;51.938;15.520;2022-09-03T11:41:25;7.30;;;2.17;;
70420;SDS011;57848;51.938;15.520;2022-09-03T11:43:52;7.55;;;2.00;;
70420;SDS011;57848;51.938;15.520;2022-09-03T11:48:49;11.17;;;2.30;;
70420;SDS011;57848;51.938;15.520;2022-09-03T11:51:17;12.10;;;2.50;;
70420;SDS011;57848;51.938;15.520;2022-09-03T11:53:55;9.98;;;2.20;;
70420;SDS011;57848;51.938;15.520;2022-09-03T11:56:26;6.97;;;2.15;;
70420;SDS011;57848;51.938;15.520;2022-09-03T11:58:59;8.07;;;2.37;;
70420;SDS011;57848;51.938;15.520;2022-09-03T12:01:28;10.15;;;2.30;;
70420;SDS011;57848;51.938;15.520;2022-09-03T12:04:02;7.47;;;1.90;;
70420;SDS011;57848;51.938;15.520;2022-09-03T12:09:50;6.82;;;1.95;;
70420;SDS011;57848;51.938;15.520;2022-09-03T12:12:41;5.93;;;2.00;;
70420;SDS011;57848;51.938;15.520;2022-09-03T12:17:55;6.60;;;1.90;;
70420;SDS011;57848;51.938;15.520;2022-09-03T12:20:41;8.02;;;2.60;;
70420;SDS011;57848;51.938;15.520;2022-09-03T12:23:10;6.63;;;2.00;;
70420;SDS011;57848;51.938;15.520;2022-09-03T12:25:45;10.70;;;2.33;;
70420;SDS011;57848;51.938;15.520;2022-09-03T12:28:12;7.75;;;2.10;;
70420;SDS011;57848;51.938;15.520;2022-09-03T12:30:43;7.93;;;2.20;;
70420;SDS011;57848;51.938;15.520;2022-09-03T12:33:09;5.73;;;2.07;;
70420;SDS011;57848;51.938;15.520;2022-09-03T12:35:38;7.97;;;2.38;;
70420;SDS011;57848;51.938;15.520;2022-09-03T12:38:03;8.18;;;2.45;;
70420;SDS011;57848;51.938;15.520;2022-09-03T12:40:29;6.63;;;2.50;;
70420;SDS011;57848;51.938;15.520;2022-09-03T12:42:59;7.68;;;1.83;;
70420;SDS011;57848;51.938;15.520;2022-09-03T12:45:41;11.68;;;1.85;;
70420;SDS011;57848;51.938;15.520;2022-09-03T12:48:12;10.73;;;2.13;;
70420;SDS011;57848;51.938;15.520;2022-09-03T12:50:39;7.10;;;1.95;;
70420;SDS011;57848;51.938;15.520;2022-09-03T12:53:05;8.23;;;2.08;;
70420;SDS011;57848;51.938;15.520;2022-09-03T12:55:35;8.43;;;1.90;;
70420;SDS011;57848;51.938;15.520;2022-09-03T13:06:20;8.00;;;2.17;;
70420;SDS011;57848;51.938;15.520;2022-09-03T13:08:49;7.05;;;1.90;;
70420;SDS011;57848;51.938;15.520;2022-09-03T13:11:19;7.55;;;2.10;;
70420;SDS011;57848;51.938;15.520;2022-09-03T13:22:22;9.43;;;1.70;;
70420;SDS011;57848;51.938;15.520;2022-09-03T13:30:39;7.65;;;1.92;;
70420;SDS011;57848;51.938;15.520;2022-09-03T13:33:20;10.82;;;2.45;;
70420;SDS011;57848;51.938;15.520;2022-09-03T13:41:35;6.80;;;2.30;;
70420;SDS011;57848;51.938;15.520;2022-09-03T13:44:07;6.28;;;1.67;;
70420;SDS011;57848;51.938;15.520;2022-09-03T13:46:50;8.73;;;1.90;;
70420;SDS011;57848;51.938;15.520;2022-09-03T13:49:27;7.97;;;2.00;;
70420;SDS011;57848;51.938;15.520;2022-09-03T13:52:21;7.03;;;1.80;;
70420;SDS011;57848;51.938;15.520;2022-09-03T13:55:06;7.97;;;1.90;;
70420;SDS011;57848;51.938;15.520;2022-09-03T13:57:58;6.43;;;1.92;;
70420;SDS011;57848;51.938;15.520;2022-09-03T14:00:33;8.45;;;2.13;;
70420;SDS011;57848;51.938;15.520;2022-09-03T14:08:58;8.60;;;1.77;;
70420;SDS011;57848;51.938;15.520;2022-09-03T14:26:14;6.72;;;1.77;;
70420;SDS011;57848;51.938;15.520;2022-09-03T14:29:03;6.78;;;1.65;;
70420;SDS011;57848;51.938;15.520;2022-09-03T14:39:59;7.53;;;1.65;;
70420;SDS011;57848;51.938;15.520;2022-09-03T14:45:15;6.15;;;1.73;;
70420;SDS011;57848;51.938;15.520;2022-09-03T14:48:05;8.38;;;2.00;;
70420;SDS011;57848;51.938;15.520;2022-09-03T15:01:39;9.60;;;2.05;;
70420;SDS011;57848;51.938;15.520;2022-09-03T15:04:12;8.03;;;1.67;;
70420;SDS011;57848;51.938;15.520;2022-09-03T15:09:31;5.20;;;1.60;;
70420;SDS011;57848;51.938;15.520;2022-09-03T15:12:08;7.10;;;1.80;;
70420;SDS011;57848;51.938;15.520;2022-09-03T15:14:51;8.98;;;2.15;;
70420;SDS011;57848;51.938;15.520;2022-09-03T15:17:23;7.83;;;1.80;;
70420;SDS011;57848;51.938;15.520;2022-09-03T15:20:20;7.82;;;1.90;;
70420;SDS011;57848;51.938;15.520;2022-09-03T15:25:52;7.10;;;1.60;;
70420;SDS011;57848;51.938;15.520;2022-09-03T15:33:55;7.57;;;2.05;;
70420;SDS011;57848;51.938;15.520;2022-09-03T15:36:33;6.32;;;2.10;;
70420;SDS011;57848;51.938;15.520;2022-09-03T15:39:03;6.22;;;2.30;;
70420;SDS011;57848;51.938;15.520;2022-09-03T15:44:23;7.80;;;2.00;;
70420;SDS011;57848;51.938;15.520;2022-09-03T15:50:09;7.00;;;2.13;;
70420;SDS011;57848;51.938;15.520;2022-09-03T15:52:51;9.10;;;2.10;;
70420;SDS011;57848;51.938;15.520;2022-09-03T15:58:26;6.60;;;2.00;;
70420;SDS011;57848;51.938;15.520;2022-09-03T16:03:56;6.50;;;2.20;;
70420;SDS011;57848;51.938;15.520;2022-09-03T16:06:31;10.05;;;1.90;;
70420;SDS011;57848;51.938;15.520;2022-09-03T16:09:26;7.10;;;2.08;;
70420;SDS011;57848;51.938;15.520;2022-09-03T16:12:14;7.33;;;2.70;;
70420;SDS011;57848;51.938;15.520;2022-09-03T16:14:50;6.53;;;2.40;;
70420;SDS011;57848;51.938;15.520;2022-09-03T16:17:25;7.90;;;2.25;;
70420;SDS011;57848;51.938;15.520;2022-09-03T16:20:04;6.38;;;2.00;;
70420;SDS011;57848;51.938;15.520;2022-09-03T16:22:56;6.22;;;1.77;;
70420;SDS011;57848;51.938;15.520;2022-09-03T16:25:28;9.53;;;2.50;;
70420;SDS011;57848;51.938;15.520;2022-09-03T16:31:13;6.53;;;2.25;;
70420;SDS011;57848;51.938;15.520;2022-09-03T16:34:09;6.80;;;2.13;;
70420;SDS011;57848;51.938;15.520;2022-09-03T16:50:39;7.43;;;2.63;;
70420;SDS011;57848;51.938;15.520;2022-09-03T16:53:44;8.70;;;2.20;;
70420;SDS011;57848;51.938;15.520;2022-09-03T16:56:27;9.15;;;2.30;;
70420;SDS011;57848;51.938;15.520;2022-09-03T16:59:21;11.15;;;2.72;;
70420;SDS011;57848;51.938;15.520;2022-09-03T17:02:19;8.95;;;2.55;;
70420;SDS011;57848;51.938;15.520;2022-09-03T17:05:09;9.73;;;2.65;;
70420;SDS011;57848;51.938;15.520;2022-09-03T17:07:54;9.13;;;2.70;;
70420;SDS011;57848;51.938;15.520;2022-09-03T17:10:33;8.38;;;2.75;;
70420;SDS011;57848;51.938;15.520;2022-09-03T17:21:17;10.77;;;2.40;;
70420;SDS011;57848;51.938;15.520;2022-09-03T17:24:10;10.23;;;2.50;;
70420;SDS011;57848;51.938;15.520;2022-09-03T17:27:04;9.07;;;2.72;;
70420;SDS011;57848;51.938;15.520;2022-09-03T17:32:20;7.55;;;2.55;;
70420;SDS011;57848;51.938;15.520;2022-09-03T17:35:08;9.80;;;2.50;;
70420;SDS011;57848;51.938;15.520;2022-09-03T17:49:06;7.37;;;2.30;;
70420;SDS011;57848;51.938;15.520;2022-09-03T17:51:35;10.23;;;2.40;;
70420;SDS011;57848;51.938;15.520;2022-09-03T18:02:34;10.60;;;2.53;;
70420;SDS011;57848;51.938;15.520;2022-09-03T18:05:07;7.55;;;2.50;;
70420;SDS011;57848;51.938;15.520;2022-09-03T18:07:43;8.20;;;2.00;;
70420;SDS011;57848;51.938;15.520;2022-09-03T18:10:16;8.63;;;2.03;;
70420;SDS011;57848;51.938;15.520;2022-09-03T18:12:58;10.23;;;2.63;;
70420;SDS011;57848;51.938;15.520;2022-09-03T18:15:53;6.63;;;2.20;;
70420;SDS011;57848;51.938;15.520;2022-09-03T18:18:27;7.75;;;2.30;;
70420;SDS011;57848;51.938;15.520;2022-09-03T18:20:55;9.55;;;2.40;;
70420;SDS011;57848;51.938;15.520;2022-09-03T18:27:17;7.47;;;2.65;;
70420;SDS011;57848;51.938;15.520;2022-09-03T18:30:06;9.37;;;2.60;;
70420;SDS011;57848;51.938;15.520;2022-09-03T18:32:51;16.23;;;2.50;;
70420;SDS011;57848;51.938;15.520;2022-09-03T18:35:35;12.38;;;2.80;;
70420;SDS011;57848;51.938;15.520;2022-09-03T18:38:23;11.15;;;2.72;;
70420;SDS011;57848;51.938;15.520;2022-09-03T18:41:22;9.20;;;2.67;;
70420;SDS011;57848;51.938;15.520;2022-09-03T18:44:34;11.43;;;2.47;;
70420;SDS011;57848;51.938;15.520;2022-09-03T18:50:23;9.60;;;3.13;;
70420;SDS011;57848;51.938;15.520;2022-09-03T18:53:13;9.75;;;2.75;;